Salt Lake City International Airport
KSLC : now visible

Airfield :











YOU CAN JOIN US ON...

 
LOGIN :

Register | Disclaimer

   EN    FR    IT 

 









Legend :    VFR   Marginal VFR   IFR   Intensive IFR   Very Intensive IFR
Visi :
Ceiling :
>= 8 km
>= 3000ft
5 to 8 km
1000 to 3000 ft
1500m to 5 km
500 to 1000 ft
800 to 1500m
200 to 500 ft
< 800m
< 200 ft
Symbols :   Thunderstorms  Fog  Heavy snow  Heavy precipitations  Wind > 20 kt






- Airport Elevation : 4227 ft
- IATA code : SLC


KSLC - Salt Lake City International

CURRENT METAR :
  • 250454Z 17008KT 10SM CLR 28/04 A2994 RMK AO2 SLP069 T02780039

EXPIRED METARs :
  • 250354Z 13007KT 10SM FEW100 30/03 A2992 RMK AO2 SLP062 T03000033
  • 250254Z 00000KT 10SM FEW100 33/01 A2991 RMK AO2 SLP058 T03330011 56005
  • 250154Z 01007KT 10SM FEW100 34/00 A2991 RMK AO2 SLP058 T03440000
  • 250054Z 36006KT 10SM FEW100 36/01 A2991 RMK AO2 SLP059 T03560006

TAF KSLC
Valid from the 25 at 03:00 until the 26 at 06:00 UTC


250257Z 2503/2606 01004KT P6SM FEW100
FM250330 14006KT P6SM SKC
FM251800 32007KT P6SM FEW150
FM260400 15007KT P6SM FEW150
KZLC FIR / North America



MET'MAP, your aeronautical weather chart ! - Copyright ORBIFLY December 2007 - Disclaimer

ORBIFLY MET'MAP TEAM :

Programming & Development : Alexandra Zaïnal
Original concept : Baudouin d'Aumeries
Technical & hardware support : Manuel Goepfert
Assistance : Marc-Olivier Méhu




SOURCES & CREDITS :

   NOAA       Earth
Advisory